Athena, Oregon
Current Conditions -  °F | °C
As of 2:53 AM on Tuesday 21 Oct 2014 (Local Time) from KPDT Reporting Station
Broken Clouds Broken Clouds  
Wind Chill: 50°   Ceiling: 5500
Heat Index: 50°   Visibility: 10mi
Dew Point: 45°   Wind: 6mph
Humidity: 83%   Direction: 170°S
Pressure: 29.87"   Gusts: NA
Location:  45.81°N, 118.49°W
Report Text: KPDT 210953Z AUTO 17005KT 10SM BKN055 10/07 A2987 RMK AO2 SLP108 T01000072
Loading
Personal Weather Stations






























Interactive Weather Map
Tropical Storm Tracking
New forecast layout! Learn more

10-Day Weather Forecast

Advertisements
Track Severe Weather on mobile